createdAt,value
2018-08-17T00:00:57.696Z,4.33
2018-08-17T00:03:26.843Z,6.37
2018-08-17T00:05:56.038Z,2.83
2018-08-17T00:08:25.156Z,4.43
2018-08-17T00:10:54.309Z,2.92
2018-08-17T00:13:23.470Z,5.80
2018-08-17T00:15:52.645Z,4.27
2018-08-17T00:18:21.817Z,3.60
2018-08-17T00:20:50.901Z,3.73
2018-08-17T00:23:20.058Z,4.53
2018-08-17T00:25:49.246Z,6.57
2018-08-17T00:28:18.408Z,5.27
2018-08-17T00:30:47.541Z,2.77
2018-08-17T00:33:16.693Z,4.07
2018-08-17T00:35:45.834Z,4.93
2018-08-17T00:38:15.059Z,2.97
2018-08-17T00:40:44.214Z,4.70
2018-08-17T00:43:13.361Z,5.27
2018-08-17T00:45:42.538Z,2.93
2018-08-17T00:48:11.859Z,3.47
2018-08-17T00:50:40.874Z,3.00
2018-08-17T00:53:10.093Z,3.73
2018-08-17T00:55:39.206Z,3.40
2018-08-17T00:58:08.354Z,4.73
2018-08-17T01:00:37.546Z,4.80
2018-08-17T01:03:07.164Z,4.83
2018-08-17T01:05:36.258Z,4.37
2018-08-17T01:08:05.977Z,4.10
2018-08-17T01:10:35.098Z,4.60
2018-08-17T01:13:08.557Z,4.50
2018-08-17T01:15:38.082Z,3.40
2018-08-17T01:18:07.247Z,2.93
2018-08-17T01:20:36.417Z,3.90
2018-08-17T01:23:05.721Z,5.10
2018-08-17T01:25:35.365Z,3.70
2018-08-17T01:28:05.070Z,3.97
2018-08-17T01:30:34.182Z,6.63
2018-08-17T01:33:03.346Z,3.33
2018-08-17T01:35:32.562Z,3.10
2018-08-17T01:38:01.760Z,4.67
2018-08-17T01:40:30.914Z,3.63
2018-08-17T01:43:00.089Z,5.13
2018-08-17T01:45:29.242Z,4.00
2018-08-17T01:47:58.544Z,4.27
2018-08-17T01:50:27.754Z,2.73
2018-08-17T01:52:56.854Z,2.60
2018-08-17T01:55:25.980Z,3.23
2018-08-17T01:57:55.170Z,5.13
2018-08-17T02:00:24.298Z,3.00
2018-08-17T02:02:53.437Z,4.20
2018-08-17T02:05:22.621Z,3.50
2018-08-17T02:07:51.833Z,2.93
2018-08-17T02:10:20.977Z,2.67
2018-08-17T02:12:50.114Z,3.23
2018-08-17T02:15:19.262Z,3.93
2018-08-17T02:17:48.394Z,3.63
2018-08-17T02:20:17.541Z,4.67
2018-08-17T02:22:46.642Z,3.93
2018-08-17T02:25:15.850Z,4.67
2018-08-17T02:27:44.985Z,7.37
2018-08-17T02:30:14.130Z,4.87
2018-08-17T02:32:43.279Z,8.57
2018-08-17T02:35:12.516Z,5.33
2018-08-17T02:37:41.657Z,4.77
2018-08-17T02:40:10.838Z,5.40
2018-08-17T02:42:39.968Z,3.87
2018-08-17T02:45:09.175Z,4.50
2018-08-17T02:47:38.319Z,3.37
2018-08-17T02:50:07.501Z,5.20
2018-08-17T02:52:36.610Z,4.03
2018-08-17T02:55:05.972Z,4.80
2018-08-17T02:57:35.107Z,3.53
2018-08-17T03:00:04.898Z,5.17
2018-08-17T03:02:34.063Z,3.33
2018-08-17T03:05:03.355Z,5.83
2018-08-17T03:07:32.541Z,4.77
2018-08-17T03:10:01.760Z,3.40
2018-08-17T03:12:30.932Z,4.13
2018-08-17T03:15:00.069Z,7.03
2018-08-17T03:17:29.494Z,3.93
2018-08-17T03:19:58.609Z,5.43
2018-08-17T03:22:27.794Z,8.83
2018-08-17T03:24:56.918Z,7.37
2018-08-17T03:27:26.073Z,10.83
2018-08-17T03:29:55.218Z,6.30
2018-08-17T03:32:24.346Z,8.23
2018-08-17T03:34:53.506Z,10.90
2018-08-17T03:37:22.723Z,8.33
2018-08-17T03:39:51.835Z,6.83
2018-08-17T03:42:20.953Z,8.87
2018-08-17T03:44:50.109Z,4.33
2018-08-17T03:47:19.232Z,5.17
2018-08-17T03:49:48.390Z,6.23
2018-08-17T03:52:17.514Z,4.83
2018-08-17T03:54:46.698Z,5.30
2018-08-17T03:57:15.844Z,5.23
2018-08-17T03:59:44.997Z,5.83
2018-08-17T04:02:14.130Z,2.57
2018-08-17T04:04:43.311Z,3.97
2018-08-17T04:07:12.413Z,4.00
2018-08-17T04:09:41.553Z,3.60
2018-08-17T04:12:10.719Z,4.20
2018-08-17T04:14:39.856Z,7.60
2018-08-17T04:17:08.957Z,5.60
2018-08-17T04:19:38.109Z,7.47
2018-08-17T04:22:07.309Z,10.20
2018-08-17T04:24:36.448Z,7.60
2018-08-17T04:27:05.638Z,5.93
2018-08-17T04:29:34.753Z,9.00
2018-08-17T04:32:03.904Z,8.70
2018-08-17T04:34:33.046Z,8.67
2018-08-17T04:37:02.548Z,7.17
2018-08-17T04:39:31.656Z,6.73
2018-08-17T04:42:00.862Z,4.70
2018-08-17T04:44:29.993Z,3.93
2018-08-17T04:46:59.146Z,6.00
2018-08-17T04:49:28.278Z,5.77
2018-08-17T04:51:57.427Z,4.07
2018-08-17T04:54:26.626Z,4.10
2018-08-17T04:56:55.737Z,4.20
2018-08-17T04:59:24.954Z,4.37
2018-08-17T05:01:54.069Z,8.87
2018-08-17T05:04:23.212Z,8.70
2018-08-17T05:06:52.355Z,8.83
2018-08-17T05:09:21.490Z,5.60
2018-08-17T05:11:50.610Z,8.50
2018-08-17T05:14:19.796Z,10.97
2018-08-17T05:16:48.969Z,14.67
2018-08-17T05:19:18.132Z,19.27
2018-08-17T05:21:47.272Z,12.67
2018-08-17T05:24:16.869Z,9.13
2018-08-17T05:26:46.164Z,11.03
2018-08-17T05:29:15.383Z,9.67
2018-08-17T05:31:44.531Z,11.30
2018-08-17T05:34:13.747Z,12.33
2018-08-17T05:36:42.877Z,8.43
2018-08-17T05:39:12.019Z,9.17
2018-08-17T05:41:41.157Z,10.40
2018-08-17T05:44:10.437Z,7.13
2018-08-17T05:46:39.583Z,10.23
2018-08-17T05:49:08.780Z,6.20
2018-08-17T05:51:37.937Z,8.53
2018-08-17T05:54:07.115Z,5.97
2018-08-17T05:56:36.298Z,8.23
2018-08-17T05:59:05.429Z,6.53
2018-08-17T06:01:34.566Z,6.00
2018-08-17T06:04:03.789Z,8.30
2018-08-17T06:06:32.922Z,4.80
2018-08-17T06:09:02.115Z,3.77
2018-08-17T06:11:31.408Z,3.87
2018-08-17T06:14:00.463Z,5.90
2018-08-17T06:16:29.617Z,5.70
2018-08-17T06:18:58.799Z,4.67
2018-08-17T06:21:27.971Z,5.60
2018-08-17T06:23:57.200Z,7.40
2018-08-17T06:26:26.341Z,7.30
2018-08-17T06:28:55.502Z,4.53
2018-08-17T06:31:24.735Z,5.50
2018-08-17T06:33:53.886Z,8.50
2018-08-17T06:36:23.047Z,4.87
2018-08-17T06:38:52.226Z,3.50
2018-08-17T06:41:21.362Z,5.13
2018-08-17T06:43:50.568Z,4.47
2018-08-17T06:46:19.766Z,6.53
2018-08-17T06:48:48.967Z,8.87
2018-08-17T06:51:18.091Z,5.97
2018-08-17T06:53:47.462Z,7.60
2018-08-17T06:56:16.648Z,6.00
2018-08-17T06:58:45.810Z,5.87
2018-08-17T07:01:14.927Z,7.17
2018-08-17T07:03:44.196Z,7.97
2018-08-17T07:06:13.442Z,7.37
2018-08-17T07:08:42.648Z,7.30
2018-08-17T07:11:11.746Z,3.87
2018-08-17T07:13:40.943Z,7.53
2018-08-17T07:16:10.123Z,7.28
2018-08-17T07:18:39.285Z,4.17
2018-08-17T07:21:08.856Z,6.55
2018-08-17T07:23:38.066Z,6.15
2018-08-17T07:26:07.290Z,4.35
2018-08-17T07:28:36.472Z,5.97
2018-08-17T07:31:05.633Z,6.15
2018-08-17T07:33:34.814Z,6.10
2018-08-17T07:36:03.960Z,4.80
2018-08-17T07:38:33.118Z,5.45
2018-08-17T07:41:02.237Z,5.12
2018-08-17T07:43:31.418Z,8.65
2018-08-17T07:46:00.606Z,8.95
2018-08-17T07:48:29.810Z,7.70
2018-08-17T07:50:58.944Z,6.65
2018-08-17T07:53:28.265Z,11.20
2018-08-17T07:55:57.415Z,5.08
2018-08-17T07:58:26.556Z,7.35
2018-08-17T08:00:55.716Z,4.83
2018-08-17T08:03:24.870Z,8.80
2018-08-17T08:05:54.026Z,7.30
2018-08-17T08:08:23.170Z,6.92
2018-08-17T08:10:52.598Z,6.22
2018-08-17T08:13:21.750Z,6.33
2018-08-17T08:15:50.996Z,8.30
2018-08-17T08:18:20.741Z,8.30
2018-08-17T08:20:49.962Z,6.45
2018-08-17T08:23:27.949Z,10.40
2018-08-17T08:25:57.621Z,4.30
2018-08-17T08:28:26.739Z,6.62
2018-08-17T08:30:55.908Z,8.33
2018-08-17T08:33:25.045Z,3.35
2018-08-17T08:35:54.199Z,8.48
2018-08-17T08:38:23.428Z,3.90
2018-08-17T08:40:52.556Z,9.90
2018-08-17T08:43:21.759Z,10.82
2018-08-17T08:45:50.999Z,6.72
2018-08-17T08:48:20.058Z,5.85
2018-08-17T08:50:49.218Z,8.83
2018-08-17T08:53:18.426Z,6.03
2018-08-17T08:55:47.611Z,6.85
2018-08-17T08:58:16.754Z,7.00
2018-08-17T09:00:46.142Z,5.78
2018-08-17T09:03:15.337Z,8.38
2018-08-17T09:05:44.605Z,4.97
2018-08-17T09:08:13.774Z,6.40
2018-08-17T09:10:42.850Z,6.33
2018-08-17T09:13:12.003Z,8.15
2018-08-17T09:15:41.338Z,5.67
2018-08-17T09:18:10.580Z,4.25
2018-08-17T09:20:39.771Z,5.45
2018-08-17T09:23:08.954Z,8.68
2018-08-17T09:25:38.114Z,6.83
2018-08-17T09:28:07.322Z,7.70
2018-08-17T09:30:36.498Z,10.72
2018-08-17T09:33:06.131Z,7.05
2018-08-17T09:35:35.293Z,12.28
2018-08-17T09:38:04.507Z,7.60
2018-08-17T09:40:33.722Z,6.65
2018-08-17T09:43:02.896Z,13.58
2018-08-17T09:45:32.063Z,14.68
2018-08-17T09:48:01.297Z,7.97
2018-08-17T09:50:30.503Z,4.15
2018-08-17T09:52:59.661Z,4.97
2018-08-17T09:55:28.840Z,6.72
2018-08-17T09:57:58.008Z,3.27
2018-08-17T10:00:32.410Z,5.42
2018-08-17T10:03:12.722Z,7.45
2018-08-17T10:05:43.284Z,7.55
2018-08-17T10:08:17.688Z,6.58
2018-08-17T10:10:46.870Z,5.00
2018-08-17T10:13:16.052Z,5.22
2018-08-17T10:15:45.302Z,4.67
2018-08-17T10:18:14.360Z,4.55
2018-08-17T10:20:43.636Z,4.17
2018-08-17T10:23:17.963Z,3.87
2018-08-17T10:25:47.107Z,5.90
2018-08-17T10:28:16.289Z,4.15
2018-08-17T10:30:45.502Z,3.27
2018-08-17T10:33:14.637Z,3.92
2018-08-17T10:35:43.804Z,5.62
2018-08-17T10:38:12.927Z,8.00
2018-08-17T10:40:42.074Z,5.87
2018-08-17T10:43:11.220Z,3.65
2018-08-17T10:45:40.705Z,4.05
2018-08-17T10:48:09.993Z,5.25
2018-08-17T10:50:39.182Z,7.12
2018-08-17T10:53:08.475Z,4.28
2018-08-17T10:55:42.927Z,4.28
2018-08-17T10:58:14.770Z,6.03
2018-08-17T11:00:43.899Z,3.98
2018-08-17T11:03:13.090Z,6.03
2018-08-17T11:05:42.377Z,3.70
2018-08-17T11:08:11.537Z,4.72
2018-08-17T11:10:40.715Z,6.45
2018-08-17T11:13:09.889Z,4.62
2018-08-17T11:15:39.250Z,5.72
2018-08-17T11:18:08.492Z,3.67
2018-08-17T11:20:37.744Z,3.37
2018-08-17T11:23:07.003Z,8.78
2018-08-17T11:25:36.188Z,3.47
2018-08-17T11:28:05.351Z,6.12
2018-08-17T11:30:34.506Z,3.62
2018-08-17T11:33:03.786Z,4.50
2018-08-17T11:35:32.976Z,3.90
2018-08-17T11:38:02.131Z,6.92
2018-08-17T11:40:31.333Z,4.20
2018-08-17T11:43:00.537Z,4.50
2018-08-17T11:45:29.777Z,3.33
2018-08-17T11:47:59.197Z,6.17
2018-08-17T11:50:28.389Z,6.55
2018-08-17T11:52:58.527Z,5.60
2018-08-17T11:55:29.989Z,3.45
2018-08-17T11:57:59.184Z,6.62
2018-08-17T12:00:32.697Z,3.77
2018-08-17T12:03:01.857Z,3.95
2018-08-17T12:05:31.135Z,5.20
2018-08-17T12:08:00.580Z,6.42
2018-08-17T12:10:29.709Z,3.50
2018-08-17T12:13:03.184Z,4.40
2018-08-17T12:15:36.725Z,4.95
2018-08-17T12:18:06.029Z,4.40
2018-08-17T12:20:35.217Z,5.58
2018-08-17T12:23:04.471Z,5.58
2018-08-17T12:25:38.474Z,9.28
2018-08-17T12:28:07.781Z,5.70
2018-08-17T12:30:36.970Z,4.95
2018-08-17T12:33:08.837Z,3.77
2018-08-17T12:35:37.978Z,2.87
2018-08-17T12:38:12.591Z,4.15
2018-08-17T12:40:46.320Z,6.85
2018-08-17T12:43:17.718Z,3.10
2018-08-17T12:45:47.239Z,4.85
2018-08-17T12:48:17.174Z,3.65
2018-08-17T12:50:46.812Z,5.28
2018-08-17T12:53:15.993Z,6.95
2018-08-17T12:55:45.190Z,5.50
2018-08-17T12:58:14.852Z,8.30
2018-08-17T13:00:44.458Z,5.53
2018-08-17T13:03:13.640Z,6.58
2018-08-17T13:05:42.843Z,6.90
2018-08-17T13:08:12.032Z,3.67
2018-08-17T13:10:41.260Z,5.72
2018-08-17T13:13:11.325Z,3.77
2018-08-17T13:15:48.957Z,5.33
2018-08-17T13:18:22.700Z,7.10
2018-08-17T13:20:51.862Z,8.35
2018-08-17T13:23:21.457Z,7.05
2018-08-17T13:25:50.630Z,3.47
2018-08-17T13:28:19.828Z,5.92
2018-08-17T13:30:49.013Z,4.22
2018-08-17T13:33:18.154Z,4.12
2018-08-17T13:35:47.419Z,5.00
2018-08-17T13:38:16.613Z,7.80
2018-08-17T13:40:45.806Z,4.47
2018-08-17T13:43:14.961Z,5.10
2018-08-17T13:45:44.091Z,4.85
2018-08-17T13:48:13.269Z,5.55
2018-08-17T13:50:42.410Z,5.12
2018-08-17T13:53:11.741Z,5.28
2018-08-17T13:55:40.844Z,6.15
2018-08-17T13:58:10.039Z,3.92
2018-08-17T14:00:39.160Z,3.08
2018-08-17T14:03:08.346Z,3.90
2018-08-17T14:05:37.509Z,4.20
2018-08-17T14:08:06.764Z,5.28
2018-08-17T14:10:35.939Z,3.83
2018-08-17T14:13:05.142Z,4.30
2018-08-17T14:15:34.360Z,4.42
2018-08-17T14:18:03.487Z,3.22
2018-08-17T14:20:33.020Z,5.92
2018-08-17T14:23:02.271Z,6.03
2018-08-17T14:25:31.536Z,6.90
2018-08-17T14:28:00.697Z,4.35
2018-08-17T14:30:29.924Z,4.80
2018-08-17T14:32:59.074Z,4.55
2018-08-17T14:35:28.230Z,3.17
2018-08-17T14:37:57.393Z,5.12
2018-08-17T14:40:26.647Z,3.77
2018-08-17T14:42:55.733Z,6.40
2018-08-17T14:45:24.921Z,4.72
2018-08-17T14:47:54.077Z,5.62
2018-08-17T14:50:23.268Z,6.33
2018-08-17T14:52:52.473Z,3.95
2018-08-17T14:55:21.708Z,4.50
2018-08-17T14:57:50.936Z,6.55
2018-08-17T15:00:20.170Z,3.72
2018-08-17T15:02:49.474Z,6.12
2018-08-17T15:05:18.625Z,5.20
2018-08-17T15:07:47.895Z,5.50
2018-08-17T15:10:17.020Z,9.65
2018-08-17T15:12:46.188Z,5.62
2018-08-17T15:15:15.418Z,6.10
2018-08-17T15:17:44.582Z,7.53
2018-08-17T15:20:13.721Z,6.08
2018-08-17T15:22:42.912Z,4.30
2018-08-17T15:25:12.098Z,5.03
2018-08-17T15:27:41.378Z,3.27
2018-08-17T15:30:11.627Z,4.85
2018-08-17T15:32:41.616Z,5.15
2018-08-17T15:35:11.535Z,6.00
2018-08-17T15:37:41.012Z,4.35
2018-08-17T15:40:13.416Z,2.72
2018-08-17T15:42:44.533Z,2.70
2018-08-17T15:45:17.953Z,4.92
2018-08-17T15:47:49.343Z,6.92
2018-08-17T15:50:20.548Z,6.80
2018-08-17T15:52:49.762Z,4.00
2018-08-17T15:55:18.917Z,3.92
2018-08-17T15:57:48.138Z,3.98
2018-08-17T16:00:19.934Z,4.45
2018-08-17T16:02:49.141Z,4.03
2018-08-17T16:05:18.291Z,11.88
2018-08-17T16:07:47.580Z,7.78
2018-08-17T16:10:16.905Z,3.72
2018-08-17T16:12:46.149Z,4.78
2018-08-17T16:15:15.706Z,3.37
2018-08-17T16:17:44.903Z,5.08
2018-08-17T16:20:14.169Z,4.12
2018-08-17T16:22:44.188Z,3.98
2018-08-17T16:25:13.818Z,6.45
2018-08-17T16:27:43.437Z,7.28
2018-08-17T16:30:14.372Z,4.87
2018-08-17T16:32:43.759Z,3.77
2018-08-17T16:35:15.100Z,3.77
2018-08-17T16:37:46.894Z,3.12
2018-08-17T16:40:16.281Z,3.58
2018-08-17T16:42:49.173Z,5.92
2018-08-17T16:45:18.480Z,5.85
2018-08-17T16:47:47.662Z,4.15
2018-08-17T16:50:17.044Z,4.45
2018-08-17T16:52:46.214Z,4.47
2018-08-17T16:55:15.358Z,4.17
2018-08-17T16:57:44.596Z,5.87
2018-08-17T17:00:13.864Z,6.75
2018-08-17T17:02:42.982Z,3.95
2018-08-17T17:05:12.163Z,4.87
2018-08-17T17:07:41.419Z,5.67
2018-08-17T17:10:10.651Z,3.80
2018-08-17T17:12:39.894Z,6.00
2018-08-17T17:15:15.117Z,5.67
2018-08-17T17:17:53.883Z,4.55
2018-08-17T17:20:23.146Z,7.62
2018-08-17T17:22:52.357Z,3.50
2018-08-17T17:25:22.230Z,4.03
2018-08-17T17:27:51.445Z,3.58
2018-08-17T17:30:20.596Z,5.05
2018-08-17T17:32:49.794Z,5.15
2018-08-17T17:35:19.063Z,7.67
2018-08-17T17:37:48.284Z,6.78
2018-08-17T17:40:17.523Z,6.90
2018-08-17T17:42:46.754Z,8.70
2018-08-17T17:45:15.993Z,7.85
2018-08-17T17:47:45.189Z,5.47
2018-08-17T17:50:14.394Z,6.08
2018-08-17T17:52:43.607Z,5.28
2018-08-17T17:55:13.534Z,6.10
2018-08-17T17:57:42.743Z,8.38
2018-08-17T18:00:11.930Z,5.35
2018-08-17T18:02:41.349Z,7.50
2018-08-17T18:05:10.619Z,6.70
2018-08-17T18:07:44.315Z,5.28
2018-08-17T18:10:13.501Z,5.40
2018-08-17T18:12:42.814Z,5.83
2018-08-17T18:15:13.077Z,6.37
2018-08-17T18:17:42.486Z,10.58
2018-08-17T18:20:13.249Z,11.57
2018-08-17T18:22:42.473Z,6.75
2018-08-17T18:25:16.386Z,7.87
2018-08-17T18:27:46.189Z,9.43
2018-08-17T18:30:15.410Z,8.33
2018-08-17T18:32:44.925Z,7.80
2018-08-17T18:35:14.215Z,7.60
2018-08-17T18:37:43.506Z,8.13
2018-08-17T18:40:12.874Z,8.23
2018-08-17T18:42:42.180Z,7.53
2018-08-17T18:45:11.406Z,13.53
2018-08-17T18:47:40.593Z,10.80
2018-08-17T18:50:09.854Z,9.85
2018-08-17T18:52:39.134Z,10.70
2018-08-17T18:55:08.423Z,10.00
2018-08-17T18:57:37.630Z,7.78
2018-08-17T19:00:08.970Z,8.85
2018-08-17T19:02:38.516Z,8.30
2018-08-17T19:05:08.693Z,10.55
2018-08-17T19:07:38.450Z,9.50
2018-08-17T19:10:08.663Z,8.38
2018-08-17T19:12:37.836Z,6.33
2018-08-17T19:15:09.609Z,7.22
2018-08-17T19:17:38.862Z,6.25
2018-08-17T19:20:11.633Z,6.08
2018-08-17T19:22:42.770Z,7.00
2018-08-17T19:25:13.335Z,6.35
2018-08-17T19:27:43.350Z,6.22
2018-08-17T19:30:21.588Z,5.80
2018-08-17T19:32:51.906Z,6.45
2018-08-17T19:35:21.167Z,5.95
2018-08-17T19:37:51.209Z,6.17
2018-08-17T19:40:21.056Z,5.00
2018-08-17T19:42:50.255Z,5.97
2018-08-17T19:45:20.013Z,6.78
2018-08-17T19:47:49.232Z,6.10
2018-08-17T19:50:18.470Z,4.53
2018-08-17T19:52:47.677Z,6.42
2018-08-17T19:55:17.018Z,6.35
2018-08-17T19:57:46.218Z,7.45
2018-08-17T20:00:15.382Z,6.15
2018-08-17T20:02:44.558Z,7.33
2018-08-17T20:05:13.770Z,5.67
2018-08-17T20:07:43.091Z,4.95
2018-08-17T20:10:13.425Z,6.28
2018-08-17T20:12:43.643Z,5.05
2018-08-17T20:15:12.881Z,6.65
2018-08-17T20:17:47.532Z,5.22
2018-08-17T20:20:16.810Z,5.85
2018-08-17T20:22:46.016Z,5.55
2018-08-17T20:25:16.826Z,5.53
2018-08-17T20:27:46.858Z,7.42
2018-08-17T20:30:21.465Z,7.85
2018-08-17T20:32:50.682Z,8.18
2018-08-17T20:35:20.025Z,7.53
2018-08-17T20:37:51.697Z,6.40
2018-08-17T20:40:21.300Z,10.50
2018-08-17T20:42:50.656Z,6.03
2018-08-17T20:45:21.821Z,8.60
2018-08-17T20:47:51.035Z,6.50
2018-08-17T20:50:20.257Z,6.42
2018-08-17T20:52:57.826Z,8.40
2018-08-17T20:55:27.173Z,5.95
2018-08-17T20:57:57.200Z,9.90
2018-08-17T21:00:27.629Z,6.47
2018-08-17T21:02:56.960Z,5.70
2018-08-17T21:05:26.155Z,5.78
2018-08-17T21:07:55.322Z,6.10
2018-08-17T21:10:24.505Z,11.15
2018-08-17T21:12:53.650Z,7.42
2018-08-17T21:15:22.854Z,8.90
2018-08-17T21:17:52.056Z,6.90
2018-08-17T21:20:21.335Z,8.50
2018-08-17T21:22:50.617Z,6.40
2018-08-17T21:25:19.831Z,7.73
2018-08-17T21:27:49.010Z,8.80
2018-08-17T21:30:18.204Z,8.23
2018-08-17T21:32:47.441Z,8.80
2018-08-17T21:35:16.658Z,6.70
2018-08-17T21:37:45.840Z,6.70
2018-08-17T21:40:28.121Z,7.67
2018-08-17T21:42:58.474Z,7.62
2018-08-17T21:45:27.732Z,6.62
2018-08-17T21:47:56.953Z,6.72
2018-08-17T21:50:26.438Z,10.28
2018-08-17T21:52:55.663Z,7.67
2018-08-17T21:55:24.871Z,8.28
2018-08-17T21:57:54.020Z,7.00
2018-08-17T22:00:31.033Z,12.30
2018-08-17T22:03:00.215Z,7.70
2018-08-17T22:05:30.728Z,10.88
2018-08-17T22:08:00.439Z,9.28
2018-08-17T22:10:30.226Z,8.97
2018-08-17T22:12:59.489Z,9.00
2018-08-17T22:15:30.128Z,7.85
2018-08-17T22:17:59.466Z,8.30
2018-08-17T22:20:28.600Z,10.17
2018-08-17T22:22:58.916Z,8.70
2018-08-17T22:25:28.064Z,8.63
2018-08-17T22:27:57.280Z,8.80
2018-08-17T22:30:27.081Z,9.03
2018-08-17T22:32:56.224Z,9.80
2018-08-17T22:35:25.538Z,8.67
2018-08-17T22:37:54.608Z,9.40
2018-08-17T22:40:23.725Z,9.67
2018-08-17T22:42:52.922Z,8.97
2018-08-17T22:45:22.166Z,10.07
2018-08-17T22:47:51.440Z,12.20
2018-08-17T22:50:20.577Z,8.90
2018-08-17T22:52:51.137Z,8.87
2018-08-17T22:55:20.278Z,9.77
2018-08-17T22:57:49.462Z,10.25
2018-08-17T23:00:29.567Z,10.23
2018-08-17T23:03:01.020Z,11.83
2018-08-17T23:05:33.916Z,10.87
2018-08-17T23:08:03.111Z,15.60
2018-08-17T23:10:32.342Z,11.97
2018-08-17T23:13:01.532Z,10.97
2018-08-17T23:15:30.710Z,10.37
2018-08-17T23:18:00.979Z,9.93
2018-08-17T23:20:37.702Z,11.13
2018-08-17T23:23:07.620Z,11.30
2018-08-17T23:25:36.783Z,10.23
2018-08-17T23:28:06.014Z,10.93
2018-08-17T23:30:35.211Z,10.70
2018-08-17T23:33:04.418Z,11.47
2018-08-17T23:35:33.591Z,11.73
2018-08-17T23:38:02.857Z,12.10
2018-08-17T23:40:32.061Z,13.30
2018-08-17T23:43:01.257Z,12.70
2018-08-17T23:45:30.427Z,13.40
2018-08-17T23:47:59.598Z,12.97
2018-08-17T23:50:28.785Z,13.13
2018-08-17T23:52:57.974Z,13.63
2018-08-17T23:55:27.150Z,13.50
2018-08-17T23:57:56.384Z,13.83
